»·PEaware :: WAT306 KTUS-KEGE

WAT306 :: KTUS-KEGE

FLIGHT INFORMATION

Flight Status: Arrived
Operator:
Walker Air Transport
More flights by this operator :: More flights under this callsign
Pilot: Ethan S. (29221)
Aircraft: SOCATA TBM-900
(TBM9)
More flights by this aircraft type
Origin: KTUS Tucson Intl
United States
Destination: KEGE Eagle Co Regl
United States
More flights between these airports :: More routes between these airports
Route: +BURRO4 HOTTT PXR J44 RSK HBU
File this flight plan on PilotEdge
Remarks:
Altitude:
(Current/Filed)
31,000ft
Speed:
(Current/Filed)
320kts
Departed: 31-Aug-20 07:19 AM
Arrived: 31-Aug-20 09:05 AM
Distance/Time
Traveled:
492nm/1:46
Distance/Time
To Go:
Arrived

Flight Plot

Page will automatically refresh every two minutes.

Flight plan parsing failed; only flown route is shown


Map Options




Map Legend


Flown Route
Filed Route
Departure Airport
Arrival Airport
Navaid (VOR, NDB)
Fix

Horizontal Profiles

Position Reports

Time Latitude Longitude Heading Altitude Ground
Speed
31-Aug-20 07:01 32.125553 -110.945129 44 2573ft 0kts
31-Aug-20 07:02 32.125557 -110.945124 44 2573ft 0kts
31-Aug-20 07:03 32.125557 -110.945124 44 2573ft 0kts
31-Aug-20 07:04 32.125557 -110.945124 44 2573ft 0kts
31-Aug-20 07:05 32.125557 -110.945124 44 2573ft 0kts
31-Aug-20 07:06 32.125557 -110.945124 44 2573ft 0kts
31-Aug-20 07:07 32.125557 -110.945124 44 2573ft 0kts
31-Aug-20 07:08 32.125557 -110.945124 44 2573ft 0kts
31-Aug-20 07:09 32.125557 -110.945124 44 2573ft 0kts
31-Aug-20 07:10 32.125557 -110.945124 44 2573ft 0kts
31-Aug-20 07:11 32.125557 -110.945124 44 2573ft 0kts
31-Aug-20 07:12 32.125557 -110.945124 44 2573ft 0kts
31-Aug-20 07:13 32.125557 -110.945124 44 2573ft 0kts
31-Aug-20 07:14 32.125557 -110.945124 44 2573ft 0kts
31-Aug-20 07:15 32.125760 -110.945104 319 2572ft 0kts
31-Aug-20 07:16 32.124803 -110.947305 89 2571ft 7kts
31-Aug-20 07:17 32.123819 -110.947080 224 2574ft 1kts
31-Aug-20 07:18 32.114776 -110.937980 135 2737ft 116kts
31-Aug-20 07:19 32.087236 -110.905272 134 5017ft 135kts
31-Aug-20 07:20 32.059042 -110.872387 135 7522ft 142kts
31-Aug-20 07:21 32.025426 -110.874566 221 10089ft 149kts
31-Aug-20 07:22 31.994802 -110.909976 222 12464ft 158kts
31-Aug-20 07:23 31.963755 -110.948375 246 15179ft 165kts
31-Aug-20 07:24 31.982983 -111.001244 299 17537ft 180kts
31-Aug-20 07:25 32.007555 -111.051204 304 20450ft 164kts
31-Aug-20 07:26 32.031044 -111.098885 302 23190ft 165kts
31-Aug-20 07:27 32.055000 -111.147723 299 25960ft 166kts
31-Aug-20 07:28 32.087516 -111.189833 342 28307ft 185kts
31-Aug-20 07:29 32.143124 -111.173162 8 30220ft 211kts
31-Aug-20 07:30 32.206158 -111.150104 10 31060ft 266kts
31-Aug-20 07:31 32.286856 -111.120451 10 31004ft 310kts
31-Aug-20 07:32 32.376182 -111.087587 10 30987ft 323kts
31-Aug-20 07:33 32.465966 -111.054490 10 30989ft 325kts
31-Aug-20 07:34 32.555174 -111.013710 23 30995ft 331kts
31-Aug-20 07:35 32.642211 -110.956278 25 30987ft 345kts
31-Aug-20 07:36 32.731458 -110.897527 24 30984ft 349kts
31-Aug-20 07:37 32.820585 -110.838735 24 30985ft 343kts
31-Aug-20 07:38 32.909226 -110.780114 24 30988ft 342kts
31-Aug-20 07:39 32.997868 -110.721376 24 30983ft 342kts
31-Aug-20 07:40 33.086315 -110.662523 21 30978ft 333kts
31-Aug-20 07:41 33.173746 -110.604361 21 30982ft 334kts
31-Aug-20 07:42 33.262421 -110.545172 21 30981ft 335kts
31-Aug-20 07:43 33.348759 -110.487404 21 31039ft 334kts
31-Aug-20 07:44 33.434969 -110.429593 21 31172ft 332kts
31-Aug-20 07:45 33.520553 -110.372078 21 31225ft 334kts
31-Aug-20 07:46 33.605786 -110.314658 21 31222ft 335kts
31-Aug-20 07:47 33.690611 -110.257386 21 31226ft 335kts
31-Aug-20 07:48 33.776082 -110.199546 21 31226ft 335kts
31-Aug-20 07:49 33.861224 -110.141793 21 31227ft 335kts
31-Aug-20 07:50 33.944419 -110.085232 21 31228ft 336kts
31-Aug-20 07:51 34.026477 -110.029319 21 31228ft 336kts
31-Aug-20 07:52 34.109258 -109.972787 21 31229ft 336kts
31-Aug-20 07:53 34.191438 -109.916537 21 31229ft 336kts
31-Aug-20 07:54 34.274256 -109.859724 21 31227ft 336kts
31-Aug-20 07:55 34.358584 -109.801739 21 31208ft 337kts
31-Aug-20 07:56 34.442240 -109.744084 22 31178ft 337kts
31-Aug-20 07:57 34.526159 -109.686108 22 31161ft 337kts
31-Aug-20 07:59 34.609770 -109.628213 22 31168ft 336kts
31-Aug-20 08:00 34.694019 -109.569738 21 31168ft 334kts
31-Aug-20 08:01 34.777676 -109.511537 21 31169ft 334kts
31-Aug-20 08:02 34.862225 -109.452575 21 31170ft 334kts
31-Aug-20 08:03 34.945336 -109.394434 21 31170ft 337kts
31-Aug-20 08:04 35.029381 -109.335568 20 31158ft 344kts
31-Aug-20 08:05 35.114776 -109.275611 20 31178ft 349kts
31-Aug-20 08:06 35.201321 -109.214672 20 31204ft 350kts
31-Aug-20 08:07 35.287551 -109.153801 20 31205ft 351kts
31-Aug-20 08:08 35.373674 -109.092870 20 31200ft 350kts
31-Aug-20 08:09 35.460410 -109.031337 20 31204ft 349kts
31-Aug-20 08:10 35.548012 -108.969031 19 31211ft 348kts
31-Aug-20 08:11 35.634725 -108.907220 19 31208ft 347kts
31-Aug-20 08:12 35.720265 -108.846073 19 31204ft 347kts
31-Aug-20 08:13 35.805807 -108.784776 19 31201ft 347kts
31-Aug-20 08:14 35.891479 -108.723233 19 31201ft 347kts
31-Aug-20 08:14 35.963224 -108.671570 19 31208ft 347kts
31-Aug-20 08:16 36.063231 -108.599380 19 31195ft 348kts
31-Aug-20 08:17 36.148273 -108.537817 19 31153ft 349kts
31-Aug-20 08:18 36.233320 -108.476104 20 31118ft 349kts
31-Aug-20 08:18 36.304420 -108.424376 19 31117ft 348kts
31-Aug-20 08:20 36.404025 -108.351739 19 31118ft 348kts
31-Aug-20 08:20 36.474598 -108.300135 20 31105ft 347kts
31-Aug-20 08:21 36.558938 -108.238324 20 31106ft 347kts
31-Aug-20 08:22 36.643716 -108.176028 20 31107ft 347kts
31-Aug-20 08:23 36.728132 -108.113848 20 31109ft 347kts
31-Aug-20 08:24 36.814342 -108.058872 15 31110ft 342kts
31-Aug-20 08:25 36.901075 -108.006154 15 31148ft 341kts
31-Aug-20 08:26 36.987973 -107.953261 16 31184ft 341kts
31-Aug-20 08:27 37.074482 -107.900433 18 31185ft 341kts
31-Aug-20 08:28 37.160985 -107.847338 20 31181ft 338kts
31-Aug-20 08:29 37.247727 -107.794068 20 31183ft 337kts
31-Aug-20 08:30 37.334387 -107.740690 19 31183ft 336kts
31-Aug-20 08:31 37.420227 -107.687698 19 31187ft 336kts
31-Aug-20 08:32 37.505952 -107.634633 19 31211ft 336kts
31-Aug-20 08:33 37.592093 -107.581193 20 31226ft 336kts
31-Aug-20 08:34 37.677806 -107.527850 19 31251ft 336kts
31-Aug-20 08:35 37.762811 -107.474838 19 31319ft 335kts
31-Aug-20 08:36 37.848127 -107.421464 20 31318ft 336kts
31-Aug-20 08:37 37.933909 -107.367664 20 31332ft 337kts
31-Aug-20 08:38 38.019670 -107.313762 20 31234ft 339kts
31-Aug-20 08:39 38.109030 -107.257508 21 29812ft 366kts
31-Aug-20 08:40 38.204588 -107.197076 22 28078ft 375kts
31-Aug-20 08:41 38.300089 -107.136521 23 26366ft 373kts
31-Aug-20 08:42 38.394704 -107.076332 23 24773ft 367kts
31-Aug-20 08:43 38.488958 -107.035502 359 24278ft 335kts
31-Aug-20 08:44 38.581656 -107.026417 360 24271ft 319kts
31-Aug-20 08:45 38.670785 -107.017277 359 24273ft 313kts
31-Aug-20 08:46 38.761143 -107.008018 0 23447ft 331kts
31-Aug-20 08:47 38.856008 -106.998219 0 22289ft 336kts
31-Aug-20 08:48 38.947745 -106.984750 21 22185ft 324kts
31-Aug-20 08:49 39.027566 -106.930415 23 22200ft 316kts
31-Aug-20 08:50 39.106637 -106.877085 23 22192ft 312kts
31-Aug-20 08:51 39.184240 -106.824590 23 22192ft 311kts
31-Aug-20 08:52 39.262005 -106.771840 23 22203ft 310kts
31-Aug-20 08:53 39.340841 -106.718239 23 22232ft 310kts
31-Aug-20 08:54 39.419486 -106.664632 23 22233ft 311kts
31-Aug-20 08:55 39.497731 -106.611161 23 22192ft 312kts
31-Aug-20 08:56 39.579225 -106.555315 24 20391ft 313kts
31-Aug-20 08:57 39.647401 -106.574353 307 18277ft 249kts
31-Aug-20 08:58 39.690904 -106.643186 278 16193ft 235kts
31-Aug-20 08:59 39.673577 -106.719518 249 13980ft 181kts
31-Aug-20 09:00 39.663769 -106.763070 258 11289ft 111kts
31-Aug-20 09:01 39.657937 -106.804247 260 10239ft 118kts
31-Aug-20 09:02 39.653531 -106.843322 257 9064ft 101kts
31-Aug-20 09:03 39.646504 -106.879991 263 6940ft 95kts
31-Aug-20 09:04 39.643336 -106.910526 263 6548ft 33kts
31-Aug-20 09:05 39.641810 -106.915762 141 6548ft 0kts
31-Aug-20 09:06 39.641916 -106.913240 82 6548ft 20kts
31-Aug-20 09:07 39.641559 -106.910227 93 6548ft 11kts
31-Aug-20 09:08 39.641082 -106.909816 261 6548ft 0kts
31-Aug-20 09:09 39.641098 -106.909671 262 6548ft 2kts
31-Aug-20 09:10 39.641102 -106.909638 262 6548ft 0kts
31-Aug-20 09:11 39.641102 -106.909638 262 6548ft 0kts
31-Aug-20 09:12 39.641102 -106.909638 262 6548ft 0kts
31-Aug-20 09:13 39.641102 -106.909638 262 6548ft 0kts
31-Aug-20 09:14 39.641102 -106.909638 262 6548ft 0kts
31-Aug-20 09:15 39.641102 -106.909638 262 6548ft 0kts
31-Aug-20 09:16 39.641102 -106.909638 262 6548ft 0kts
31-Aug-20 09:17 39.641102 -106.909638 262 6548ft 0kts
31-Aug-20 09:18 39.641102 -106.909638 262 6548ft 0kts

Navigation Log

Ident Type
Flight plan parsing failed, navigation log unavailable